LHX weather

La Junta Municipal Airport
La Junta, Colorado, United States

Public forecast

Using degrees Fahrenheit for public forecast. Weather courtesy of forecast.io.

METAR (pilot weather report)

Retrieved 2019/07/20 18:53 UTC (39 minutes ago):

KLHX 201853Z AUTO 04021G29KT 10SM CLR 39/09 A2991 RMK AO2 PK WND 01033/1815 SLP044 T03890094

TAF (pilot weather forecast)

Closest forecast is Pueblo Memorial Airport, 48.8 nm (90.4 km) WNW. Retrieved 2019/07/20 18:42 UTC (50 minutes ago):

TAF KPUB 201740Z 2018/2118 02014KT P6SM SCT150 FM202200 03014G24KT P6SM VCTS SCT060CB BKN100 TEMPO 2023/2103 -TSRA BKN060CB BKN100 FM210400 34010KT P6SM VCSH SCT060 BKN100 FM210700 VRB05KT P6SM SCT150 FM211600 09007KT P6SM FEW200